High Point, New Jersey
Current Conditions -  °F | °C
As of 11:53 AM on Friday 24 Oct 2014 (Local Time) from KFWN Reporting Station
Overcast Overcast  
Wind Chill: 15°   Ceiling: 3100
Heat Index: 15°   Visibility: 10mi
Dew Point:   Wind: 12mph
Humidity: 58%   Direction: 350°N
Pressure: 29.84"   Gusts: 18mph
Location:  41.2395°N, 74.6087°W
Report Text: KFWN 241553Z AUTO 35010G16KT 310V020 10SM OVC031 15/07 A2984 RMK AO2 SLP105 T01500067
Loading
Personal Weather Stations






























Interactive Weather Map
Tropical Storm Tracking
New forecast layout! Learn more

10-Day Weather Forecast

Advertisements
Track Severe Weather on mobile